Time;durP1;ratioP1;P1;durP2;ratioP2;P2;SDS_P1;SDS_P2;PMS_P1;PMS_P2;Temp;Humidity;BMP_temperature;BMP_pressure;BME280_temperature;BME280_humidity;BME280_pressure;Samples;Min_cycle;Max_cycle;Signal;HPM_P1;HPM_P2
2023/12/31 00:00:09;;;;;;;2.47;2.28;;;18.20;61.30;;;;;;5091467;28;20545;-67
2023/12/31 00:02:36;;;;;;;2.63;2.38;;;18.30;61.30;;;;;;5073780;28;20215;-68
2023/12/31 00:05:02;;;;;;;2.25;1.88;;;18.20;61.30;;;;;;5090129;28;20228;-67
2023/12/31 00:07:28;;;;;;;2.50;2.30;;;18.30;61.40;;;;;;5090010;28;20216;-67
2023/12/31 00:09:54;;;;;;;2.60;2.38;;;18.20;61.20;;;;;;5094688;28;20185;-68
2023/12/31 00:12:20;;;;;;;2.13;1.98;;;18.20;61.30;;;;;;5089039;28;20209;-68
2023/12/31 00:14:45;;;;;;;2.22;2.00;;;18.20;61.10;;;;;;5090836;28;20189;-70
2023/12/31 00:17:11;;;;;;;3.15;2.47;;;18.20;61.20;;;;;;5085697;28;20184;-68
2023/12/31 00:19:37;;;;;;;2.35;2.15;;;18.30;61.20;;;;;;5088893;28;20184;-68
2023/12/31 00:22:03;;;;;;;2.40;2.20;;;18.30;61.30;;;;;;5102194;28;20192;-68
2023/12/31 00:24:28;;;;;;;2.42;2.22;;;18.30;62.00;;;;;;5082776;28;20189;-68
2023/12/31 00:26:54;;;;;;;1.90;1.80;;;18.30;61.20;;;;;;5100743;28;20188;-68
2023/12/31 00:29:20;;;;;;;2.45;2.22;;;18.20;61.10;;;;;;5084881;28;20189;-68
2023/12/31 00:31:46;;;;;;;2.58;2.20;;;18.20;61.20;;;;;;5093627;28;20203;-68
2023/12/31 00:34:11;;;;;;;2.92;2.40;;;18.20;61.10;;;;;;5097749;28;20290;-68
2023/12/31 00:36:38;;;;;;;3.95;2.15;;;18.20;61.20;;;;;;5094207;28;20199;-68
2023/12/31 00:39:05;;;;;;;2.83;2.13;;;18.20;61.10;;;;;;5103067;28;20213;-69
2023/12/31 00:41:31;;;;;;;2.30;2.10;;;18.20;61.10;;;;;;5099158;28;20189;-69
2023/12/31 00:43:57;;;;;;;2.13;1.95;;;18.20;61.10;;;;;;5094390;28;20208;-68
2023/12/31 00:46:23;;;;;;;2.67;2.30;;;18.20;61.10;;;;;;5112999;27;20739;-68
2023/12/31 00:48:49;;;;;;;2.60;2.40;;;18.20;61.20;;;;;;5088902;28;20276;-68
2023/12/31 00:51:15;;;;;;;2.35;2.15;;;18.20;61.10;;;;;;5088673;28;20196;-67
2023/12/31 00:53:41;;;;;;;2.08;1.98;;;18.20;61.00;;;;;;5086374;28;20208;-67
2023/12/31 00:56:09;;;;;;;2.00;1.83;;;18.20;61.00;;;;;;5083118;28;20180;-68
2023/12/31 00:58:35;;;;;;;2.28;2.10;;;18.20;61.00;;;;;;5085997;28;20188;-67
2023/12/31 01:01:01;;;;;;;2.72;2.50;;;18.20;61.00;;;;;;5100183;28;20219;-67
2023/12/31 01:03:26;;;;;;;3.13;2.13;;;18.20;61.00;;;;;;5083291;28;20211;-67
2023/12/31 01:05:52;;;;;;;2.33;2.13;;;18.20;61.10;;;;;;5105179;28;20204;-68
2023/12/31 01:08:18;;;;;;;2.30;2.10;;;18.20;61.10;;;;;;5092925;28;20209;-68
2023/12/31 01:10:44;;;;;;;2.17;1.98;;;18.20;61.00;;;;;;5093781;28;20230;-68
2023/12/31 01:13:09;;;;;;;2.55;1.90;;;18.20;61.00;;;;;;5092806;28;20724;-68
2023/12/31 01:15:35;;;;;;;3.03;2.03;;;18.20;61.00;;;;;;5084655;28;20192;-67
2023/12/31 01:18:02;;;;;;;1.88;1.73;;;18.20;60.90;;;;;;5125492;27;20204;-68
2023/12/31 01:20:28;;;;;;;3.50;2.35;;;18.20;60.90;;;;;;5100731;28;20292;-69
2023/12/31 01:22:54;;;;;;;2.38;2.17;;;18.20;61.00;;;;;;5091919;28;20216;-68
2023/12/31 01:25:19;;;;;;;2.30;2.10;;;18.20;60.90;;;;;;5108827;28;20210;-67
2023/12/31 01:27:45;;;;;;;2.40;2.20;;;18.20;61.00;;;;;;5075189;28;20185;-68
2023/12/31 01:30:12;;;;;;;2.60;2.40;;;18.20;60.90;;;;;;5083018;28;20187;-68
2023/12/31 01:32:37;;;;;;;2.55;2.35;;;18.20;61.00;;;;;;5093059;28;20201;-68
2023/12/31 01:35:03;;;;;;;3.15;2.50;;;18.20;61.00;;;;;;5114113;27;20222;-67
2023/12/31 01:37:29;;;;;;;3.65;2.95;;;18.20;61.00;;;;;;5079724;28;20187;-68
2023/12/31 01:39:55;;;;;;;2.70;2.50;;;18.20;61.00;;;;;;5093011;28;20240;-68
2023/12/31 01:42:21;;;;;;;2.92;2.63;;;18.20;60.90;;;;;;5077979;28;20212;-69
2023/12/31 01:44:47;;;;;;;2.53;2.33;;;18.20;61.00;;;;;;5076400;28;20236;-68
2023/12/31 01:47:13;;;;;;;2.40;2.20;;;18.20;60.90;;;;;;5091936;28;20564;-68
2023/12/31 01:49:39;;;;;;;2.88;2.55;;;18.20;60.90;;;;;;5079046;28;20322;-67
2023/12/31 01:52:05;;;;;;;2.60;2.40;;;18.20;60.90;;;;;;5099310;28;20189;-68
2023/12/31 01:54:31;;;;;;;2.50;2.30;;;18.20;60.90;;;;;;5077560;28;20184;-68
2023/12/31 01:56:58;;;;;;;2.40;2.10;;;18.20;60.80;;;;;;5089358;28;20185;-68
2023/12/31 01:59:25;;;;;;;2.58;2.38;;;18.20;60.90;;;;;;5079040;28;20637;-68
2023/12/31 02:01:51;;;;;;;2.20;2.00;;;18.20;60.90;;;;;;5078991;28;20613;-68
2023/12/31 02:04:20;;;;;;;2.45;2.25;;;18.20;60.90;;;;;;5099904;28;20180;-68
2023/12/31 02:06:47;;;;;;;2.55;2.35;;;18.20;60.90;;;;;;5076044;28;20181;-68
2023/12/31 02:09:14;;;;;;;2.50;2.30;;;18.20;60.70;;;;;;5091345;28;20185;-67
2023/12/31 02:11:41;;;;;;;2.70;2.50;;;18.20;60.90;;;;;;5095969;28;20177;-68
2023/12/31 02:14:06;;;;;;;2.50;1.95;;;18.20;60.80;;;;;;5074515;28;20219;-68
2023/12/31 02:16:33;;;;;;;2.25;2.05;;;18.20;60.80;;;;;;5095446;28;20226;-67
2023/12/31 02:18:59;;;;;;;2.40;2.20;;;18.20;60.80;;;;;;5074053;28;20197;-68
2023/12/31 02:21:26;;;;;;;2.72;2.30;;;18.20;60.90;;;;;;5074385;28;20217;-67
2023/12/31 02:23:52;;;;;;;2.40;2.20;;;18.20;60.90;;;;;;5074186;28;20235;-68
2023/12/31 02:26:18;;;;;;;2.97;2.15;;;18.20;60.90;;;;;;5074858;28;20600;-68
2023/12/31 02:28:44;;;;;;;2.13;1.92;;;18.20;60.90;;;;;;5079784;28;20190;-68
2023/12/31 02:31:09;;;;;;;2.40;2.10;;;18.20;60.90;;;;;;5076901;28;20184;-68
2023/12/31 02:33:35;;;;;;;2.42;2.22;;;18.20;60.80;;;;;;5078050;28;20207;-68
2023/12/31 02:36:01;;;;;;;2.50;2.30;;;18.20;60.80;;;;;;5087617;28;20632;-68
2023/12/31 02:38:28;;;;;;;2.42;1.77;;;18.20;61.60;;;;;;5081191;28;20592;-67
2023/12/31 02:40:54;;;;;;;2.22;2.03;;;18.10;60.70;;;;;;5077671;28;20212;-68
2023/12/31 02:43:20;;;;;;;2.05;1.85;;;18.20;60.80;;;;;;5094304;28;20293;-68
2023/12/31 02:45:46;;;;;;;2.15;1.95;;;18.10;60.60;;;;;;5104431;28;20208;-68
2023/12/31 02:48:11;;;;;;;2.10;1.90;;;18.20;60.80;;;;;;5090793;28;20235;-68
2023/12/31 02:50:37;;;;;;;2.03;1.92;;;18.20;60.80;;;;;;5098144;28;20191;-68
2023/12/31 02:53:04;;;;;;;2.10;1.92;;;18.20;60.80;;;;;;5105780;28;20197;-68
2023/12/31 02:55:30;;;;;;;2.10;1.90;;;18.20;60.80;;;;;;5074450;28;20217;-68
2023/12/31 02:57:56;;;;;;;2.33;2.13;;;18.10;60.60;;;;;;5091104;28;20196;-68
2023/12/31 03:00:22;;;;;;;1.60;1.50;;;18.10;60.70;;;;;;5077031;28;20195;-68
2023/12/31 03:02:47;;;;;;;1.80;1.48;;;18.10;60.60;;;;;;5094093;28;20364;-68
2023/12/31 03:05:13;;;;;;;1.77;1.67;;;18.10;60.60;;;;;;5109966;28;20212;-68
2023/12/31 03:07:39;;;;;;;1.80;1.70;;;18.20;60.70;;;;;;5094157;28;20246;-68
2023/12/31 03:10:06;;;;;;;2.17;1.90;;;18.10;60.60;;;;;;5098764;28;20190;-66
2023/12/31 03:12:32;;;;;;;1.92;1.77;;;18.10;60.50;;;;;;5073832;28;20319;-68
2023/12/31 03:14:57;;;;;;;1.70;1.60;;;18.10;60.50;;;;;;5085346;28;20280;-68
2023/12/31 03:17:23;;;;;;;1.73;1.63;;;18.20;60.70;;;;;;5071150;28;20190;-68
2023/12/31 03:19:50;;;;;;;1.90;1.80;;;18.10;61.20;;;;;;5104154;28;20185;-68
2023/12/31 03:22:16;;;;;;;2.10;1.98;;;18.10;60.50;;;;;;5090918;28;20217;-68
2023/12/31 03:24:43;;;;;;;1.50;1.40;;;18.10;60.60;;;;;;5074031;28;20254;-68
2023/12/31 03:27:10;;;;;;;2.03;1.85;;;18.10;60.50;;;;;;5090572;28;20279;-67
2023/12/31 03:29:36;;;;;;;1.70;1.60;;;18.10;60.50;;;;;;5090425;28;20181;-68
2023/12/31 03:32:02;;;;;;;1.67;1.58;;;18.10;60.50;;;;;;5091245;28;20192;-69
2023/12/31 03:34:28;;;;;;;1.90;1.80;;;18.10;60.60;;;;;;5084914;28;20177;-68
2023/12/31 03:36:53;;;;;;;1.80;1.70;;;18.10;60.60;;;;;;5076097;28;20182;-68
2023/12/31 03:39:19;;;;;;;1.70;1.60;;;18.10;60.50;;;;;;5084176;28;20241;-68
2023/12/31 03:41:45;;;;;;;1.75;1.65;;;18.10;60.50;;;;;;5081289;28;20215;-68
2023/12/31 03:44:11;;;;;;;1.88;1.77;;;18.10;60.40;;;;;;5086495;28;20205;-68
2023/12/31 03:46:36;;;;;;;1.73;1.63;;;18.10;60.50;;;;;;5073665;28;20212;-69
2023/12/31 03:49:03;;;;;;;1.60;1.50;;;18.10;60.50;;;;;;5084850;28;20177;-68
2023/12/31 03:51:29;;;;;;;2.17;1.98;;;18.10;60.50;;;;;;5094103;28;20185;-69
2023/12/31 03:53:54;;;;;;;2.00;1.80;;;18.10;60.40;;;;;;5088929;28;20208;-69
2023/12/31 03:56:20;;;;;;;1.88;1.70;;;18.10;60.50;;;;;;5093985;28;20187;-68
2023/12/31 03:58:46;;;;;;;2.10;1.90;;;18.10;60.40;;;;;;5071677;28;20185;-68
2023/12/31 04:01:11;;;;;;;1.92;1.83;;;18.10;60.50;;;;;;5088448;28;20204;-69
2023/12/31 04:03:39;;;;;;;1.65;1.50;;;18.10;60.40;;;;;;5077417;28;20211;-68
2023/12/31 04:06:07;;;;;;;1.55;1.45;;;18.10;60.30;;;;;;5093867;28;20258;-69
2023/12/31 04:08:33;;;;;;;1.85;1.75;;;18.10;60.40;;;;;;5094388;28;20235;-68
2023/12/31 04:10:59;;;;;;;1.85;1.75;;;18.10;60.30;;;;;;5077209;28;20230;-69
2023/12/31 04:13:25;;;;;;;1.92;1.80;;;18.10;60.30;;;;;;5093797;28;20205;-68
2023/12/31 04:15:50;;;;;;;2.22;2.03;;;18.10;60.30;;;;;;5073534;28;20190;-68
2023/12/31 04:18:17;;;;;;;2.05;1.73;;;18.10;60.30;;;;;;5084795;28;20715;-68
2023/12/31 04:20:43;;;;;;;1.73;1.60;;;18.10;60.30;;;;;;5076681;28;20203;-68
2023/12/31 04:23:09;;;;;;;1.75;1.63;;;18.10;60.30;;;;;;5076541;28;20213;-68
2023/12/31 04:25:34;;;;;;;1.90;1.80;;;18.10;60.30;;;;;;5098380;28;20206;-68
2023/12/31 04:28:00;;;;;;;1.70;1.60;;;18.10;60.30;;;;;;5071516;28;20190;-68
2023/12/31 04:30:26;;;;;;;1.40;1.30;;;18.10;60.30;;;;;;5114810;27;20208;-68
2023/12/31 04:32:53;;;;;;;1.60;1.50;;;18.10;60.30;;;;;;5093484;28;20204;-68
2023/12/31 04:35:18;;;;;;;1.80;1.70;;;18.10;60.30;;;;;;5093298;28;20189;-71
2023/12/31 04:37:44;;;;;;;1.77;1.67;;;18.10;60.30;;;;;;5095794;28;20192;-68
2023/12/31 04:40:10;;;;;;;1.67;1.58;;;18.10;60.30;;;;;;5094069;28;20181;-69
2023/12/31 04:42:36;;;;;;;1.80;1.70;;;18.10;60.30;;;;;;5081603;28;20214;-68
2023/12/31 04:45:07;;;;;;;1.70;1.60;;;18.10;60.30;;;;;;5096530;28;20212;-69
2023/12/31 04:47:35;;;;;;;1.50;1.40;;;18.10;60.20;;;;;;5094003;28;20271;-68
2023/12/31 04:50:00;;;;;;;1.90;1.70;;;18.10;60.10;;;;;;5097244;28;20192;-68
2023/12/31 04:52:26;;;;;;;1.45;1.35;;;18.10;60.20;;;;;;5086239;28;20205;-68
2023/12/31 04:54:53;;;;;;;1.70;1.60;;;18.10;60.20;;;;;;5080868;28;20185;-67
2023/12/31 04:57:19;;;;;;;1.70;1.60;;;18.10;60.20;;;;;;5080962;28;20196;-68
2023/12/31 04:59:45;;;;;;;1.77;1.67;;;18.10;60.20;;;;;;5094923;28;20184;-68
2023/12/31 05:02:11;;;;;;;1.63;1.52;;;18.10;60.10;;;;;;5100443;28;20253;-68
2023/12/31 05:04:39;;;;;;;1.70;1.60;;;18.10;60.20;;;;;;5101569;28;20196;-68
2023/12/31 05:07:05;;;;;;;1.65;1.55;;;18.10;60.20;;;;;;5092837;28;20186;-68
2023/12/31 05:09:31;;;;;;;1.42;1.33;;;18.00;60.00;;;;;;5096301;28;20176;-68
2023/12/31 05:11:57;;;;;;;1.67;1.58;;;18.10;60.20;;;;;;5077751;28;20230;-68
2023/12/31 05:14:22;;;;;;;1.55;1.45;;;18.10;60.10;;;;;;5096270;28;20201;-68
2023/12/31 05:16:48;;;;;;;1.80;1.60;;;18.10;60.20;;;;;;5072544;28;20276;-69
2023/12/31 05:19:14;;;;;;;1.90;1.70;;;18.10;60.10;;;;;;5073144;28;20195;-68
2023/12/31 05:21:40;;;;;;;1.65;1.50;;;18.10;60.10;;;;;;5092602;28;20193;-68
2023/12/31 05:24:06;;;;;;;1.73;1.50;;;18.10;60.10;;;;;;5090649;28;20236;-69
2023/12/31 05:26:32;;;;;;;1.58;1.40;;;18.10;60.10;;;;;;5093701;28;20205;-68
2023/12/31 05:28:57;;;;;;;2.25;1.60;;;18.10;60.10;;;;;;5075456;28;20262;-68
2023/12/31 05:31:23;;;;;;;1.60;1.50;;;18.10;60.10;;;;;;5093809;28;20189;-68
2023/12/31 05:33:49;;;;;;;1.40;1.30;;;18.10;60.00;;;;;;5075667;28;20204;-68
2023/12/31 05:36:15;;;;;;;1.70;1.60;;;18.10;60.20;;;;;;5090907;28;20190;-69
2023/12/31 05:38:40;;;;;;;1.60;1.50;;;18.00;60.00;;;;;;5093998;28;20181;-70
2023/12/31 05:41:06;;;;;;;1.58;1.48;;;18.10;60.00;;;;;;5075361;28;20185;-68
2023/12/31 05:43:32;;;;;;;1.52;1.42;;;18.00;59.90;;;;;;5100415;28;20247;-68
2023/12/31 05:45:57;;;;;;;1.70;1.60;;;18.10;60.10;;;;;;5088895;28;20255;-68
2023/12/31 05:48:23;;;;;;;1.52;1.42;;;18.00;60.00;;;;;;5091199;28;20200;-68
2023/12/31 05:50:50;;;;;;;1.73;1.63;;;18.00;59.90;;;;;;5072473;28;20186;-69
2023/12/31 05:53:16;;;;;;;1.58;1.48;;;18.10;60.00;;;;;;5073013;28;20197;-67
2023/12/31 05:55:42;;;;;;;1.70;1.60;;;18.00;59.90;;;;;;5075931;28;20185;-67
2023/12/31 05:58:07;;;;;;;1.55;1.45;;;18.10;60.00;;;;;;5077111;28;20652;-68
2023/12/31 06:00:33;;;;;;;1.65;1.48;;;18.10;60.00;;;;;;5095132;28;20240;-68
2023/12/31 06:02:59;;;;;;;1.80;1.70;;;18.10;59.90;;;;;;5106842;28;20212;-68
2023/12/31 06:05:24;;;;;;;1.55;1.45;;;18.10;60.00;;;;;;5095789;28;20299;-68
2023/12/31 06:07:50;;;;;;;1.30;1.20;;;18.10;59.90;;;;;;5106015;28;20188;-69
2023/12/31 06:10:16;;;;;;;1.73;1.50;;;18.00;59.80;;;;;;5074078;28;20182;-68
2023/12/31 06:12:42;;;;;;;1.50;1.40;;;18.10;60.00;;;;;;5075738;28;20236;-68
2023/12/31 06:15:09;;;;;;;1.63;1.52;;;18.10;59.90;;;;;;5075844;28;20188;-68
2023/12/31 06:17:35;;;;;;;1.50;1.40;;;18.10;59.90;;;;;;5075702;28;20283;-68
2023/12/31 06:20:03;;;;;;;1.30;1.20;;;18.10;60.00;;;;;;5071166;28;20276;-68
2023/12/31 06:22:29;;;;;;;1.25;1.13;;;18.10;60.00;;;;;;5107218;27;20221;-68
2023/12/31 06:24:55;;;;;;;1.40;1.30;;;18.10;59.90;;;;;;5085238;28;20223;-68
2023/12/31 06:27:21;;;;;;;1.70;1.58;;;18.10;60.00;;;;;;5072024;28;20185;-68
2023/12/31 06:29:46;;;;;;;1.23;1.13;;;18.10;60.00;;;;;;5087845;28;20228;-68
2023/12/31 06:32:12;;;;;;;2.05;1.20;;;18.10;60.00;;;;;;5077367;28;20196;-68
2023/12/31 06:34:38;;;;;;;1.52;1.42;;;18.10;59.90;;;;;;5075934;28;20181;-68
2023/12/31 06:37:03;;;;;;;1.60;1.50;;;18.10;60.00;;;;;;5107513;28;20196;-70
2023/12/31 06:39:29;;;;;;;1.35;1.25;;;18.00;59.90;;;;;;5092159;28;20198;-68
2023/12/31 06:41:55;;;;;;;1.30;1.20;;;18.10;60.00;;;;;;5108268;28;20189;-68
2023/12/31 06:44:21;;;;;;;1.33;1.20;;;18.10;60.00;;;;;;5091530;28;20189;-68
2023/12/31 06:46:47;;;;;;;1.30;1.20;;;18.10;59.90;;;;;;5091374;28;20211;-68
2023/12/31 06:49:13;;;;;;;1.23;1.23;;;18.10;59.90;;;;;;5108098;28;20184;-69
2023/12/31 06:51:39;;;;;;;1.30;1.20;;;18.10;59.90;;;;;;5099491;28;20200;-68
2023/12/31 06:54:05;;;;;;;1.40;1.30;;;18.10;59.90;;;;;;5091227;28;20209;-68
2023/12/31 06:56:31;;;;;;;1.52;1.42;;;18.10;60.00;;;;;;5076059;28;20246;-68
2023/12/31 06:58:56;;;;;;;1.40;1.27;;;18.10;59.90;;;;;;5094108;28;20198;-68
2023/12/31 07:01:22;;;;;;;1.40;1.30;;;18.10;59.90;;;;;;5068402;28;20189;-68
2023/12/31 07:03:48;;;;;;;1.42;1.30;;;18.10;59.90;;;;;;5090527;28;20212;-68
2023/12/31 07:06:13;;;;;;;1.40;1.30;;;18.10;59.90;;;;;;5094157;28;20291;-68
2023/12/31 07:08:39;;;;;;;1.40;1.30;;;18.10;59.90;;;;;;5090832;28;20180;-68
2023/12/31 07:11:05;;;;;;;1.30;1.20;;;18.10;59.90;;;;;;5090166;28;20192;-68
2023/12/31 07:13:31;;;;;;;0.93;0.93;;;18.10;59.90;;;;;;5090382;28;20220;-68
2023/12/31 07:15:58;;;;;;;1.27;1.17;;;18.10;59.90;;;;;;5090518;28;20188;-68
2023/12/31 07:18:24;;;;;;;1.50;1.40;;;18.10;59.90;;;;;;5074058;28;20189;-69
2023/12/31 07:20:49;;;;;;;1.30;1.20;;;18.10;59.90;;;;;;5093985;28;20219;-68
2023/12/31 07:23:15;;;;;;;1.00;1.00;;;18.10;59.90;;;;;;5085759;28;20204;-68
2023/12/31 07:25:41;;;;;;;1.52;1.42;;;18.10;59.90;;;;;;5093450;28;20203;-68
2023/12/31 07:28:07;;;;;;;1.45;1.30;;;18.10;59.90;;;;;;5104301;28;20660;-68
2023/12/31 07:30:32;;;;;;;1.00;1.00;;;18.10;59.90;;;;;;5083576;28;20643;-68
2023/12/31 07:32:58;;;;;;;1.08;0.98;;;18.10;59.90;;;;;;5079825;28;20564;-68
2023/12/31 07:35:24;;;;;;;1.25;1.23;;;18.10;59.90;;;;;;5098565;28;20192;-68
2023/12/31 07:37:50;;;;;;;1.00;1.00;;;18.10;59.90;;;;;;5077484;28;20271;-68
2023/12/31 07:40:16;;;;;;;1.10;1.10;;;18.10;59.90;;;;;;5077428;28;20188;-69
2023/12/31 07:42:42;;;;;;;1.30;1.20;;;18.10;59.80;;;;;;5092683;28;20341;-70
2023/12/31 07:45:08;;;;;;;1.25;1.15;;;18.10;59.90;;;;;;5058356;28;20216;-68
2023/12/31 07:47:35;;;;;;;1.00;1.00;;;18.10;59.80;;;;;;5104542;28;20675;-68
2023/12/31 07:50:07;;;;;;;1.65;1.25;;;18.10;59.80;;;;;;5098246;28;20674;-68
2023/12/31 07:52:33;;;;;;;1.40;1.30;;;18.10;59.80;;;;;;5106215;28;20207;-68
2023/12/31 07:54:59;;;;;;;1.00;0.90;;;18.10;59.90;;;;;;5099233;28;20185;-68
2023/12/31 07:57:25;;;;;;;1.30;1.20;;;18.10;59.80;;;;;;5097948;28;20199;-68
2023/12/31 07:59:51;;;;;;;1.42;1.33;;;18.10;59.80;;;;;;5081009;28;20242;-67
2023/12/31 08:02:16;;;;;;;1.20;1.10;;;18.10;59.80;;;;;;5073078;28;20204;-67
2023/12/31 08:04:42;;;;;;;1.08;1.08;;;18.10;59.80;;;;;;5091407;28;20189;-67
2023/12/31 08:07:08;;;;;;;1.10;1.02;;;18.10;59.80;;;;;;5078777;28;20181;-68
2023/12/31 08:09:34;;;;;;;1.27;1.17;;;18.10;59.80;;;;;;5091320;28;20181;-68
2023/12/31 08:12:00;;;;;;;1.35;1.25;;;18.10;59.80;;;;;;5108757;28;20194;-68
2023/12/31 08:14:26;;;;;;;1.40;1.30;;;18.10;59.80;;;;;;5075680;28;20325;-68
2023/12/31 08:16:51;;;;;;;1.27;1.20;;;18.10;59.80;;;;;;5073378;28;20216;-68
2023/12/31 08:19:17;;;;;;;1.30;1.20;;;18.10;59.80;;;;;;5080753;28;20231;-68
2023/12/31 08:21:43;;;;;;;1.40;1.30;;;18.10;59.80;;;;;;5089777;28;20219;-68
2023/12/31 08:24:08;;;;;;;1.20;1.20;;;18.10;59.70;;;;;;5079017;28;20208;-68
2023/12/31 08:26:38;;;;;;;1.40;1.23;;;18.10;59.80;;;;;;5082286;28;20247;-69
2023/12/31 08:29:03;;;;;;;1.20;1.10;;;18.10;59.80;;;;;;5098413;28;20181;-67
2023/12/31 08:31:29;;;;;;;1.00;1.00;;;18.10;59.80;;;;;;5106086;28;20188;-68
2023/12/31 08:33:55;;;;;;;1.05;1.05;;;18.10;59.80;;;;;;5091298;28;20203;-68
2023/12/31 08:36:21;;;;;;;1.10;1.10;;;18.10;59.80;;;;;;5102325;28;20192;-69
2023/12/31 08:38:46;;;;;;;1.42;1.33;;;18.10;59.70;;;;;;5104615;28;20193;-68
2023/12/31 08:41:12;;;;;;;1.27;1.17;;;18.10;59.80;;;;;;5105240;28;20233;-68
2023/12/31 08:43:38;;;;;;;1.27;1.17;;;18.10;59.70;;;;;;5093699;28;20212;-68
2023/12/31 08:46:04;;;;;;;1.33;1.23;;;18.10;59.70;;;;;;5098353;28;20242;-67
2023/12/31 08:48:29;;;;;;;1.10;1.10;;;18.10;59.70;;;;;;5102796;28;20177;-68
2023/12/31 08:50:55;;;;;;;1.17;1.05;;;18.10;59.70;;;;;;5090780;28;20670;-67
2023/12/31 08:53:21;;;;;;;1.00;1.00;;;18.10;59.70;;;;;;5093581;28;20244;-68
2023/12/31 08:55:51;;;;;;;1.10;1.00;;;18.10;59.70;;;;;;5108821;28;20189;-67
2023/12/31 08:58:18;;;;;;;1.10;1.00;;;18.10;59.60;;;;;;5107016;28;20188;-68
2023/12/31 09:00:43;;;;;;;1.20;1.10;;;18.10;59.70;;;;;;5076187;28;20195;-69
2023/12/31 09:03:09;;;;;;;0.93;0.93;;;18.10;60.30;;;;;;5076374;28;20208;-68
2023/12/31 09:05:35;;;;;;;1.20;1.10;;;18.20;59.70;;;;;;5078886;28;20212;-68
2023/12/31 09:08:02;;;;;;;1.20;1.10;;;18.10;59.60;;;;;;5097620;28;20184;-69
2023/12/31 09:10:28;;;;;;;1.20;1.10;;;18.20;59.60;;;;;;5102477;28;20199;-68
2023/12/31 09:12:54;;;;;;;1.20;1.10;;;18.10;59.50;;;;;;5077288;28;20204;-68
2023/12/31 09:15:20;;;;;;;2.00;1.33;;;18.20;59.60;;;;;;5082996;28;20652;-68
2023/12/31 09:17:45;;;;;;;1.30;1.20;;;18.20;59.60;;;;;;5094432;28;20190;-68
2023/12/31 09:20:11;;;;;;;1.33;1.23;;;18.20;59.60;;;;;;5099832;28;20216;-68
2023/12/31 09:22:37;;;;;;;1.42;1.33;;;18.10;59.50;;;;;;5092309;28;20701;-68
2023/12/31 09:25:05;;;;;;;1.40;1.30;;;18.20;59.60;;;;;;5082678;28;20274;-67
2023/12/31 09:27:32;;;;;;;1.20;1.10;;;18.20;59.60;;;;;;5099423;28;20180;-68
2023/12/31 09:29:57;;;;;;;1.73;1.35;;;18.20;59.60;;;;;;5090686;28;20204;-67
2023/12/31 09:32:23;;;;;;;1.30;1.20;;;18.20;59.60;;;;;;5105776;28;20244;-67
2023/12/31 09:34:49;;;;;;;1.25;1.15;;;18.20;59.60;;;;;;5080946;28;20207;-68
2023/12/31 09:37:18;;;;;;;1.38;1.27;;;18.20;59.50;;;;;;5077896;28;20230;-68
2023/12/31 09:39:48;;;;;;;1.38;1.27;;;18.20;59.50;;;;;;5080830;28;20185;-68
2023/12/31 09:42:25;;;;;;;1.40;1.30;;;18.20;59.50;;;;;;5097849;28;20207;-67
2023/12/31 09:44:51;;;;;;;1.30;1.20;;;18.20;59.50;;;;;;5091876;28;20238;-67
2023/12/31 09:47:18;;;;;;;1.08;1.00;;;18.20;59.50;;;;;;5091686;28;20177;-68
2023/12/31 09:49:44;;;;;;;2.28;1.55;;;18.20;59.50;;;;;;5076189;28;20181;-68
2023/12/31 09:52:10;;;;;;;1.25;1.10;;;18.20;59.50;;;;;;5107706;28;20195;-68
2023/12/31 09:54:43;;;;;;;1.10;1.00;;;18.20;59.40;;;;;;5099886;28;20679;-68
2023/12/31 09:57:09;;;;;;;1.40;1.30;;;18.20;59.50;;;;;;5084876;28;20277;-68
2023/12/31 09:59:35;;;;;;;1.50;1.40;;;18.20;59.30;;;;;;5123312;27;20266;-67
2023/12/31 10:02:06;;;;;;;1.60;1.50;;;18.20;59.50;;;;;;5078890;28;20187;-68
2023/12/31 10:04:32;;;;;;;1.58;1.48;;;18.20;59.50;;;;;;5091703;28;20189;-70
2023/12/31 10:06:59;;;;;;;1.73;1.63;;;18.30;59.50;;;;;;5074592;28;20228;-68
2023/12/31 10:09:31;;;;;;;1.35;1.25;;;18.20;59.40;;;;;;5081504;28;20209;-68
2023/12/31 10:11:56;;;;;;;1.67;1.42;;;18.20;59.50;;;;;;5102115;28;20224;-68
2023/12/31 10:14:25;;;;;;;1.33;1.23;;;18.30;59.60;;;;;;5074289;28;20219;-68
2023/12/31 10:16:51;;;;;;;1.20;1.10;;;18.20;59.50;;;;;;5084875;28;20241;-68
2023/12/31 10:19:17;;;;;;;1.52;1.42;;;18.30;59.50;;;;;;5101578;28;20189;-67
2023/12/31 10:21:43;;;;;;;1.88;1.55;;;18.30;59.50;;;;;;5080893;28;20188;-67
2023/12/31 10:24:10;;;;;;;1.55;1.40;;;18.30;59.60;;;;;;5091400;28;20208;-67
2023/12/31 10:26:36;;;;;;;1.90;1.67;;;18.30;59.50;;;;;;5097439;28;20686;-68
2023/12/31 10:29:04;;;;;;;1.10;1.10;;;18.20;59.30;;;;;;5080558;28;20217;-67
2023/12/31 10:31:31;;;;;;;1.52;1.25;;;18.30;59.50;;;;;;5092387;28;20189;-67
2023/12/31 10:34:16;;;;;;;1.48;1.38;;;18.30;59.50;;;;;;5097360;28;20300;-69
2023/12/31 10:36:45;;;;;;;1.70;1.60;;;18.30;59.40;;;;;;5074088;28;20193;-68
2023/12/31 10:39:28;;;;;;;1.73;1.60;;;18.30;59.50;;;;;;5078760;28;20308;-67
2023/12/31 10:42:05;;;;;;;1.70;1.60;;;18.30;59.50;;;;;;5092314;28;20189;-66
2023/12/31 10:44:38;;;;;;;2.20;1.30;;;18.30;59.40;;;;;;5097121;28;20225;-67
2023/12/31 10:47:11;;;;;;;1.60;1.50;;;18.30;59.50;;;;;;5086907;28;20185;-67
2023/12/31 10:49:43;;;;;;;1.45;1.35;;;18.30;59.60;;;;;;5074096;28;20189;-67
2023/12/31 10:52:14;;;;;;;2.47;1.38;;;18.30;59.50;;;;;;5095071;28;20173;-66
2023/12/31 10:54:51;;;;;;;1.85;1.40;;;18.30;59.50;;;;;;5102281;28;20191;-68
2023/12/31 10:57:19;;;;;;;3.53;1.60;;;18.30;59.70;;;;;;5096223;28;20203;-67
2023/12/31 10:59:48;;;;;;;1.50;1.20;;;18.30;59.70;;;;;;5099101;28;20234;-68
2023/12/31 11:02:24;;;;;;;1.63;1.50;;;18.40;59.70;;;;;;5107725;28;20288;-67
2023/12/31 11:04:51;;;;;;;2.58;1.52;;;18.30;59.60;;;;;;5071704;28;20193;-68
2023/12/31 11:07:20;;;;;;;1.40;1.30;;;18.30;59.60;;;;;;5090749;28;20181;-67
2023/12/31 11:09:48;;;;;;;1.73;1.42;;;18.30;59.70;;;;;;5087751;28;20185;-68
2023/12/31 11:12:15;;;;;;;1.60;1.50;;;18.30;59.60;;;;;;5090386;28;20196;-68
2023/12/31 11:15:01;;;;;;;1.52;1.20;;;18.30;59.70;;;;;;5090623;28;20229;-68
2023/12/31 11:18:06;;;;;;;1.70;1.60;;;18.30;59.70;;;;;;5093361;28;20309;-68
2023/12/31 11:20:51;;;;;;;1.85;1.50;;;18.40;59.80;;;;;;5068824;28;20233;-67
2023/12/31 11:24:01;;;;;;;1.48;1.38;;;18.30;59.70;;;;;;5069755;28;20204;-68
2023/12/31 11:26:28;;;;;;;1.70;1.58;;;18.30;59.60;;;;;;5087909;28;20203;-68
2023/12/31 11:28:54;;;;;;;2.00;1.45;;;18.30;59.60;;;;;;5097110;28;20216;-68
2023/12/31 11:31:20;;;;;;;1.52;1.40;;;18.40;59.80;;;;;;5095553;28;20223;-68
2023/12/31 11:33:47;;;;;;;1.73;1.55;;;18.40;59.80;;;;;;5087433;28;20193;-68
2023/12/31 11:36:17;;;;;;;1.65;1.55;;;18.30;59.80;;;;;;5095484;28;20276;-68
2023/12/31 11:39:14;;;;;;;2.00;1.70;;;18.40;59.80;;;;;;5073620;28;20184;-68
2023/12/31 11:41:52;;;;;;;2.50;1.70;;;18.30;59.70;;;;;;5072845;28;20201;-68
2023/12/31 11:44:37;;;;;;;1.33;1.23;;;18.30;59.70;;;;;;5087781;28;20237;-68
2023/12/31 11:47:13;;;;;;;1.60;1.50;;;18.30;59.70;;;;;;5089312;28;20217;-68
2023/12/31 11:49:50;;;;;;;1.65;1.55;;;18.30;59.70;;;;;;5095594;28;20218;-68
2023/12/31 11:52:20;;;;;;;2.08;1.70;;;18.40;59.80;;;;;;5073355;28;20200;-68
2023/12/31 11:54:46;;;;;;;2.05;1.30;;;18.30;59.80;;;;;;5070245;28;20229;-68
2023/12/31 11:57:16;;;;;;;2.17;1.30;;;18.40;59.80;;;;;;5081895;28;20241;-69
2023/12/31 11:59:44;;;;;;;1.48;1.38;;;18.30;59.80;;;;;;5073832;28;20192;-68
2023/12/31 12:02:10;;;;;;;1.77;1.42;;;18.30;59.80;;;;;;5091275;28;20196;-68
2023/12/31 12:04:37;;;;;;;2.05;1.20;;;18.40;59.90;;;;;;5078430;28;20180;-69
2023/12/31 12:07:04;;;;;;;1.40;1.30;;;18.30;59.80;;;;;;5077043;28;20217;-68
2023/12/31 12:09:32;;;;;;;2.97;1.50;;;18.40;59.90;;;;;;5091265;28;20268;-68
2023/12/31 12:12:07;;;;;;;1.67;1.58;;;18.30;59.80;;;;;;5081705;28;20200;-68
2023/12/31 12:14:33;;;;;;;3.10;1.67;;;18.40;59.90;;;;;;5088658;28;20204;-68
2023/12/31 12:17:00;;;;;;;1.40;1.30;;;18.30;60.00;;;;;;5079761;28;20189;-68
2023/12/31 12:19:26;;;;;;;1.60;1.17;;;18.40;59.90;;;;;;5093765;28;20199;-67
2023/12/31 12:21:53;;;;;;;3.17;1.52;;;18.40;59.90;;;;;;5089270;28;20189;-68
2023/12/31 12:24:19;;;;;;;3.30;1.63;;;18.40;60.60;;;;;;5076889;28;20250;-69
2023/12/31 12:26:49;;;;;;;2.95;1.60;;;18.50;61.70;;;;;;5077138;28;20209;-68
2023/12/31 12:29:16;;;;;;;4.53;1.58;;;18.50;61.40;;;;;;5098017;28;20180;-68
2023/12/31 12:31:49;;;;;;;6.22;1.50;;;18.50;61.50;;;;;;5116996;27;20177;-68
2023/12/31 12:34:16;;;;;;;3.70;1.42;;;18.50;61.40;;;;;;5101453;28;20222;-69
2023/12/31 12:36:43;;;;;;;1.60;1.50;;;18.40;61.30;;;;;;5091474;28;20280;-68
2023/12/31 12:39:20;;;;;;;2.63;1.20;;;18.40;61.20;;;;;;5103792;28;20189;-68
2023/12/31 12:41:53;;;;;;;1.95;1.30;;;18.40;61.20;;;;;;5107226;28;20189;-68
2023/12/31 12:44:23;;;;;;;2.47;1.35;;;18.40;61.20;;;;;;5089823;28;20232;-69
2023/12/31 12:46:51;;;;;;;1.50;1.40;;;18.40;61.20;;;;;;5094035;28;20223;-68